IT-0422 weather

Campo di Volo "Pajaro Loco"
Sesto al Reghena (PN), Friuli-Venezia Giulia, Italy

Public forecast

Using degrees Celsius for public forecast. Weather courtesy of forecast.io.

METAR (pilot weather report)

Report is more than 6 hours old.

Closest report is Rivolto Air Base, 12.6 nm (23.4 km) ENE. Retrieved 2019/09/20 09:55 UTC (22 hours ago):

LIPI 200955Z 07007KT CAVOK 18/04 Q1026 RMK BKN SCT150 SCT200 VIS MIN 9999 WIND THR06 10009KT WIND THR24 11006KT BLU

TAF (pilot weather forecast)

Forecast is more than 12 hours old.

Closest forecast is Rivolto Air Base, 12.6 nm (23.4 km) ENE. Retrieved 2017/11/16 12:24 UTC (2 years ago):

TAF TAF LIPI 161100Z 1612/1624 08013KT CAVOK BECMG 1616/1618 VRB05KT 9999 FEW040 SCT090